Time;durP1;ratioP1;P1;durP2;ratioP2;P2;SDS_P1;SDS_P2;PMS_P1;PMS_P2;Temp;Humidity;BMP_temperature;BMP_pressure;BME280_temperature;BME280_humidity;BME280_pressure;Samples;Min_cycle;Max_cycle;Signal;HPM_P1;HPM_P2
2022/11/10 00:00:19;;;;;;;0.70;0.70;;;;;;;11.17;100.00;100800.63;5095798;28;20206;-73
2022/11/10 00:02:47;;;;;;;0.80;0.80;;;;;;;11.13;100.00;100814.38;5107964;28;20712;-73
2022/11/10 00:05:15;;;;;;;0.70;0.70;;;;;;;11.10;100.00;100804.78;5114182;28;20735;-73
2022/11/10 00:07:42;;;;;;;0.70;0.70;;;;;;;10.95;100.00;100807.88;5114470;28;20190;-73
2022/11/10 00:10:09;;;;;;;0.70;0.70;;;;;;;10.95;100.00;100805.28;5113921;28;20255;-73
2022/11/10 00:12:37;;;;;;;0.70;0.70;;;;;;;10.89;100.00;100804.25;5057599;28;20201;-73
2022/11/10 00:17:49;;;;;;;0.70;0.70;;;;;;;11.00;100.00;100809.72;5109558;28;20251;-73
2022/11/10 00:20:16;;;;;;;1.10;1.10;;;;;;;10.76;100.00;100791.81;5113777;28;20268;-73
2022/11/10 00:22:43;;;;;;;0.80;0.80;;;;;;;10.87;100.00;100808.53;5104595;28;20229;-73
2022/11/10 00:25:11;;;;;;;0.80;0.80;;;;;;;10.82;100.00;100807.53;5104038;28;20211;-73
2022/11/10 00:27:38;;;;;;;0.70;0.70;;;;;;;10.67;100.00;100776.00;5100803;28;20234;-73
2022/11/10 00:30:06;;;;;;;0.90;0.90;;;;;;;10.79;100.00;100791.91;5096473;28;20670;-72
2022/11/10 00:32:33;;;;;;;0.70;0.70;;;;;;;10.63;100.00;100784.56;5113997;27;20200;-73
2022/11/10 00:35:01;;;;;;;0.70;0.70;;;;;;;10.85;100.00;100789.44;5113958;28;20208;-73
2022/11/10 00:37:28;;;;;;;0.70;0.70;;;;;;;10.79;100.00;100787.59;5114253;28;20202;-73
2022/11/10 00:39:54;;;;;;;0.80;0.80;;;;;;;10.76;100.00;100794.41;5114456;28;20200;-73
2022/11/10 00:42:21;;;;;;;1.00;1.00;;;;;;;10.76;100.00;100786.63;5102664;28;20209;-73
2022/11/10 00:44:48;;;;;;;0.80;0.80;;;;;;;10.76;100.00;100786.63;5094782;28;20208;-70
2022/11/10 00:47:15;;;;;;;0.80;0.80;;;;;;;10.77;100.00;100788.41;5103554;28;20197;-73
2022/11/10 00:49:41;;;;;;;0.70;0.70;;;;;;;10.67;100.00;100763.91;5111227;28;20208;-73
2022/11/10 00:52:10;;;;;;;0.90;0.90;;;;;;;10.91;100.00;100779.25;5109755;28;20276;-73
2022/11/10 00:54:36;;;;;;;0.90;0.90;;;;;;;10.82;100.00;100773.81;5112328;28;20204;-73
2022/11/10 00:57:03;;;;;;;0.90;0.90;;;;;;;10.84;100.00;100777.34;5114195;28;20197;-73
2022/11/10 00:59:30;;;;;;;0.70;0.70;;;;;;;10.84;100.00;100785.13;5113924;28;20189;-73
2022/11/10 01:01:57;;;;;;;0.80;0.80;;;;;;;10.83;100.00;100788.53;5113238;27;20243;-73
2022/11/10 01:04:23;;;;;;;1.10;1.10;;;;;;;10.77;100.00;100772.84;5113658;28;20233;-73
2022/11/10 01:06:51;;;;;;;0.80;0.80;;;;;;;10.80;100.00;100781.56;5113864;28;20197;-73
2022/11/10 01:09:19;;;;;;;0.80;0.80;;;;;;;10.87;100.00;100780.88;5114049;28;20205;-73
2022/11/10 01:11:46;;;;;;;0.80;0.80;;;;;;;10.76;100.00;100784.91;5113679;28;20201;-73
2022/11/10 01:14:13;;;;;;;0.80;0.80;;;;;;;10.70;100.00;100787.34;5113626;28;20206;-73
2022/11/10 01:16:39;;;;;;;2.07;1.97;;;;;;;10.61;100.00;100771.56;5113318;28;20201;-72
2022/11/10 01:19:06;;;;;;;1.20;1.20;;;;;;;10.45;100.00;100746.09;5113969;28;20208;-73
2022/11/10 01:21:33;;;;;;;1.00;1.00;;;;;;;10.61;100.00;100776.75;5113265;27;20208;-73
2022/11/10 01:24:00;;;;;;;0.80;0.80;;;;;;;10.52;100.00;100770.44;5113562;28;20221;-73
2022/11/10 01:26:28;;;;;;;0.80;0.80;;;;;;;10.67;100.00;100770.81;5077831;28;20270;-73
2022/11/10 01:28:55;;;;;;;0.80;0.80;;;;;;;10.54;100.00;100769.66;5112425;28;20201;-73
2022/11/10 01:31:22;;;;;;;0.70;0.70;;;;;;;10.55;100.00;100771.41;5092936;28;20198;-73
2022/11/10 01:33:49;;;;;;;0.80;0.80;;;;;;;10.55;100.00;100770.53;5092620;28;20569;-73
2022/11/10 01:36:16;;;;;;;0.80;0.80;;;;;;;10.57;100.00;100768.84;5092985;28;20206;-73
2022/11/10 01:38:43;;;;;;;0.70;0.70;;;;;;;10.52;100.00;100762.66;5092624;28;20206;-73
2022/11/10 01:41:13;;;;;;;0.80;0.80;;;;;;;10.49;100.00;100739.25;5092616;28;20213;-73
2022/11/10 01:43:41;;;;;;;0.80;0.80;;;;;;;10.62;100.00;100759.47;5110694;28;20220;-73
2022/11/10 01:46:10;;;;;;;0.80;0.80;;;;;;;10.62;100.00;100764.66;5094566;28;20201;-73
2022/11/10 01:48:42;;;;;;;0.70;0.70;;;;;;;10.67;100.00;100768.22;5109808;28;20216;-73
2022/11/10 01:51:14;;;;;;;0.90;0.90;;;;;;;10.63;100.00;100758.66;5106789;28;20635;-73
2022/11/10 01:53:45;;;;;;;0.80;0.80;;;;;;;10.67;100.00;100757.84;5110366;28;20310;-73
2022/11/10 01:56:13;;;;;;;0.70;0.70;;;;;;;10.65;100.00;100762.13;5107201;28;20604;-73
2022/11/10 01:58:45;;;;;;;0.70;0.70;;;;;;;10.58;100.00;100744.66;5072451;28;20283;-73
2022/11/10 02:01:12;;;;;;;0.90;0.90;;;;;;;10.49;100.00;100771.22;5090723;28;20197;-73
2022/11/10 02:03:44;;;;;;;0.80;0.80;;;;;;;10.48;100.00;100769.50;5096670;28;20274;-73
2022/11/10 02:06:12;;;;;;;0.80;0.80;;;;;;;10.48;100.00;100769.50;5111646;28;20224;-73
2022/11/10 02:08:41;;;;;;;1.17;1.10;;;;;;;10.36;100.00;100774.34;5093041;28;20205;-73
2022/11/10 02:11:07;;;;;;;0.70;0.70;;;;;;;10.10;100.00;100780.47;5112325;28;20681;-73
2022/11/10 02:13:34;;;;;;;0.80;0.80;;;;;;;10.05;100.00;100767.41;5104995;28;20663;-73
2022/11/10 02:16:03;;;;;;;0.80;0.80;;;;;;;10.05;100.00;100749.28;5079266;28;20199;-73
2022/11/10 02:18:29;;;;;;;0.80;0.80;;;;;;;10.04;100.00;100769.94;5096082;28;20255;-73
2022/11/10 02:20:57;;;;;;;0.90;0.90;;;;;;;10.12;100.00;100777.13;5110625;28;20201;-73
2022/11/10 02:23:48;;;;;;;0.87;0.87;;;;;;;10.13;100.00;100784.03;5100398;28;20221;-73
2022/11/10 02:26:19;;;;;;;0.90;0.90;;;;;;;9.99;100.00;100785.34;5108046;28;20604;-73
2022/11/10 02:28:46;;;;;;;0.83;0.83;;;;;;;9.85;100.00;100769.44;5091692;28;20197;-74
2022/11/10 02:31:12;;;;;;;0.70;0.70;;;;;;;9.86;100.00;100781.56;5100296;28;20196;-73
2022/11/10 02:33:39;;;;;;;0.80;0.80;;;;;;;9.87;100.00;100782.44;5111159;28;20194;-73
2022/11/10 02:36:08;;;;;;;0.63;0.63;;;;;;;9.55;100.00;100710.72;5112048;28;20206;-72
2022/11/10 02:38:35;;;;;;;1.20;1.20;;;;;;;9.70;100.00;100757.75;5092609;28;20205;-73
2022/11/10 02:41:02;;;;;;;0.73;0.73;;;;;;;9.75;100.00;100777.78;5091549;28;20269;-73
2022/11/10 02:43:29;;;;;;;0.80;0.80;;;;;;;9.62;100.00;100761.84;5091163;28;20222;-73
2022/11/10 02:45:56;;;;;;;0.80;0.80;;;;;;;9.59;100.00;100772.09;5090444;28;20209;-73
2022/11/10 02:48:23;;;;;;;1.57;1.23;;;;;;;9.60;100.00;100771.25;5091380;28;20206;-72
2022/11/10 02:50:50;;;;;;;1.00;1.00;;;;;;;9.60;100.00;100777.31;5096383;28;20194;-73
2022/11/10 02:53:18;;;;;;;0.80;0.80;;;;;;;9.82;100.00;100799.53;5102229;28;20217;-72
2022/11/10 02:55:45;;;;;;;0.77;0.77;;;;;;;9.17;100.00;100713.03;5102287;28;20193;-73
2022/11/10 02:58:12;;;;;;;0.83;0.83;;;;;;;9.79;100.00;100804.63;5110304;28;20208;-73
2022/11/10 03:00:39;;;;;;;3.30;2.30;;;;;;;9.40;100.00;100732.72;5111258;28;20190;-73
2022/11/10 03:03:05;;;;;;;0.87;0.87;;;;;;;9.92;100.00;100811.91;5091607;28;20209;-73
2022/11/10 03:05:32;;;;;;;1.00;1.00;;;;;;;9.95;100.00;100806.84;5091069;28;20234;-72
2022/11/10 03:08:00;;;;;;;1.53;1.53;;;;;;;9.93;100.00;100803.31;5105523;28;20258;-72
2022/11/10 03:10:30;;;;;;;0.80;0.80;;;;;;;9.98;100.00;100817.31;5105820;28;20259;-73
2022/11/10 03:12:58;;;;;;;1.10;1.10;;;;;;;9.75;100.00;100806.25;5091131;28;20224;-73
2022/11/10 03:15:25;;;;;;;1.00;1.00;;;;;;;9.75;100.00;100807.97;5106493;28;20216;-72
2022/11/10 03:17:52;;;;;;;0.80;0.80;;;;;;;9.74;100.00;100804.50;5097954;28;20202;-73
2022/11/10 03:20:19;;;;;;;1.83;1.73;;;;;;;9.71;100.00;100807.00;5103498;28;20193;-72
2022/11/10 03:22:47;;;;;;;2.50;2.40;;;;;;;9.67;100.00;100806.84;5109011;28;20209;-72
2022/11/10 03:25:14;;;;;;;0.80;0.80;;;;;;;9.67;100.00;100809.44;5090706;28;20256;-72
2022/11/10 03:27:42;;;;;;;0.83;0.83;;;;;;;9.62;100.00;100805.84;5094808;28;20190;-72
2022/11/10 03:30:10;;;;;;;0.80;0.80;;;;;;;9.27;100.00;100761.66;5091213;28;20202;-72
2022/11/10 03:32:36;;;;;;;0.90;0.90;;;;;;;9.35;100.00;100796.38;5095124;28;20225;-73
2022/11/10 03:35:03;;;;;;;0.87;0.87;;;;;;;9.40;100.00;100805.19;5095590;28;20210;-72
2022/11/10 03:37:30;;;;;;;0.70;0.70;;;;;;;9.33;100.00;100792.00;5090372;28;20612;-72
2022/11/10 03:39:57;;;;;;;0.80;0.80;;;;;;;9.33;100.00;100795.47;5090522;28;20592;-72
2022/11/10 03:42:24;;;;;;;1.03;1.03;;;;;;;9.35;100.00;100791.22;5071508;28;20595;-72
2022/11/10 03:44:52;;;;;;;0.80;0.80;;;;;;;9.29;100.00;100770.34;5090595;28;20229;-72
2022/11/10 03:47:19;;;;;;;0.80;0.80;;;;;;;9.20;100.00;100801.09;5090374;28;20205;-72
2022/11/10 03:49:46;;;;;;;0.70;0.70;;;;;;;9.13;100.00;100798.28;5090367;28;20292;-72
2022/11/10 03:52:12;;;;;;;0.90;0.90;;;;;;;9.08;100.00;100798.13;5090123;28;20197;-73
2022/11/10 03:54:39;;;;;;;0.73;0.73;;;;;;;9.05;100.00;100805.78;5090170;28;20210;-72
2022/11/10 03:57:06;;;;;;;0.80;0.80;;;;;;;9.07;100.00;100809.28;5090552;28;20202;-72
2022/11/10 03:59:33;;;;;;;0.80;0.80;;;;;;;8.91;100.00;100788.94;5090925;28;20202;-72
2022/11/10 04:02:01;;;;;;;1.67;1.57;;;;;;;9.12;100.00;100810.31;5091118;28;20210;-72
2022/11/10 04:09:57;;;;;;;1.90;1.83;;;;;;;8.81;100.00;100815.31;5093151;28;20323;-72
2022/11/10 04:18:19;;;;;;;3.90;3.60;;;;;;;8.68;100.00;100819.19;5110273;28;20205;-72
2022/11/10 04:20:41;;;;;;;2.40;2.30;;;;;;;8.61;100.00;100826.66;5109035;28;20190;-72
2022/11/10 04:28:33;;;;;;;1.07;1.07;;;;;;;8.62;100.00;100813.81;5107651;28;20205;-72
2022/11/10 04:31:00;;;;;;;4.43;2.60;;;;;;;8.63;100.00;100817.28;5070127;28;20209;-72
2022/11/10 04:33:28;;;;;;;2.47;1.80;;;;;;;8.63;100.00;100788.84;5097936;28;20201;-72
2022/11/10 04:35:55;;;;;;;2.03;1.87;;;;;;;8.64;100.00;100817.31;5107270;28;20197;-72
2022/11/10 04:38:21;;;;;;;1.00;1.00;;;;;;;9.27;100.00;100797.88;5093163;28;20194;-71
2022/11/10 04:40:48;;;;;;;0.97;0.97;;;;;;;9.42;100.00;100793.16;5094002;28;20245;-72
2022/11/10 04:43:15;;;;;;;1.00;1.00;;;;;;;9.32;100.00;100796.31;5094336;28;20198;-72
2022/11/10 04:45:43;;;;;;;1.00;1.00;;;;;;;9.16;100.00;100814.78;5094355;28;20228;-72
2022/11/10 04:48:09;;;;;;;1.10;1.10;;;;;;;8.82;100.00;100792.09;5096940;28;20196;-72
2022/11/10 04:50:38;;;;;;;2.43;2.33;;;;;;;9.00;100.00;100817.69;5110326;28;20194;-71
2022/11/10 04:53:04;;;;;;;0.70;0.70;;;;;;;9.75;100.00;100802.78;5093061;28;20456;-72
2022/11/10 04:55:31;;;;;;;1.70;1.60;;;;;;;9.48;100.00;100817.50;5105996;28;20197;-72
2022/11/10 04:57:58;;;;;;;0.70;0.70;;;;;;;9.40;100.00;100822.44;5114144;27;20201;-72
2022/11/10 05:00:25;;;;;;;0.87;0.87;;;;;;;9.42;100.00;100833.69;5078386;28;20634;-72
2022/11/10 05:02:52;;;;;;;0.83;0.83;;;;;;;9.43;100.00;100836.34;5114235;28;20228;-72
2022/11/10 05:05:18;;;;;;;0.90;0.90;;;;;;;9.27;100.00;100838.41;5077654;28;20238;-72
2022/11/10 05:07:49;;;;;;;0.67;0.67;;;;;;;9.33;100.00;100841.19;5114145;28;20185;-72
2022/11/10 05:10:16;;;;;;;1.27;1.27;;;;;;;9.12;100.00;100833.59;5096069;28;20206;-71
2022/11/10 05:12:42;;;;;;;3.90;2.20;;;;;;;8.88;100.00;100844.00;5073515;28;20202;-71
2022/11/10 05:15:11;;;;;;;1.00;1.00;;;;;;;9.02;100.00;100847.06;5092091;28;20926;-71
2022/11/10 05:17:38;;;;;;;0.80;0.80;;;;;;;8.92;100.00;100845.88;5040233;28;20686;-71
2022/11/10 05:20:06;;;;;;;1.90;1.80;;;;;;;8.76;100.00;100853.06;5072819;28;20199;-70
2022/11/10 05:22:33;;;;;;;1.20;1.20;;;;;;;8.39;100.00;100794.03;5072686;28;20202;-71
2022/11/10 05:25:01;;;;;;;1.03;1.03;;;;;;;8.64;100.00;100842.28;5054261;28;20234;-71
2022/11/10 05:27:28;;;;;;;0.80;0.80;;;;;;;8.58;100.00;100852.41;5072957;28;20659;-71
2022/11/10 05:29:55;;;;;;;0.80;0.80;;;;;;;8.69;100.00;100856.25;5107565;28;20395;-72
2022/11/10 05:32:22;;;;;;;0.80;0.80;;;;;;;8.59;100.00;100843.84;5112637;28;20193;-71
2022/11/10 05:34:49;;;;;;;0.80;0.80;;;;;;;8.74;100.00;100871.09;5095258;27;20201;-71
2022/11/10 05:37:15;;;;;;;0.80;0.80;;;;;;;8.73;100.00;100866.78;5105322;28;20209;-70
2022/11/10 05:39:42;;;;;;;1.00;1.00;;;;;;;8.76;100.00;100874.63;5095230;28;20210;-71
2022/11/10 05:42:10;;;;;;;1.10;1.10;;;;;;;8.92;100.00;100879.47;5106704;28;20202;-72
2022/11/10 05:44:37;;;;;;;0.70;0.70;;;;;;;8.93;100.00;100882.94;5100076;28;20236;-71
2022/11/10 05:47:04;;;;;;;1.20;1.20;;;;;;;8.97;100.00;100884.81;5111832;28;20197;-71
2022/11/10 05:49:31;;;;;;;0.80;0.80;;;;;;;9.01;100.00;100891.88;5091225;28;21848;-70
2022/11/10 05:51:57;;;;;;;0.90;0.90;;;;;;;9.01;100.00;100891.88;5091958;28;20259;-72
2022/11/10 05:54:24;;;;;;;0.97;0.97;;;;;;;9.02;100.00;100893.63;5091624;28;20200;-70
2022/11/10 05:56:51;;;;;;;0.90;0.90;;;;;;;9.05;100.00;100898.91;5098529;28;20584;-69
2022/11/10 05:59:19;;;;;;;0.80;0.80;;;;;;;9.24;100.00;100865.03;5094671;28;20194;-71
2022/11/10 06:01:46;;;;;;;0.73;0.73;;;;;;;9.15;100.00;100859.56;5101934;28;20201;-71
2022/11/10 06:04:13;;;;;;;0.80;0.80;;;;;;;9.36;100.00;100895.63;5079016;28;20233;-71
2022/11/10 06:06:40;;;;;;;1.10;1.10;;;;;;;9.31;100.00;100882.53;5089873;28;20198;-71
2022/11/10 06:09:07;;;;;;;1.43;1.43;;;;;;;9.41;100.00;100918.25;5061836;28;20588;-71
2022/11/10 06:11:34;;;;;;;0.90;0.90;;;;;;;9.41;100.00;100919.97;5078884;28;20648;-72
2022/11/10 06:14:01;;;;;;;0.80;0.80;;;;;;;9.24;100.00;100890.91;5102163;28;20209;-71
2022/11/10 06:16:29;;;;;;;0.90;0.90;;;;;;;9.52;100.00;100922.91;5061693;28;20213;-70
2022/11/10 06:18:56;;;;;;;0.90;0.90;;;;;;;9.46;100.00;100929.63;5092344;28;20206;-72
2022/11/10 06:21:23;;;;;;;1.43;1.43;;;;;;;9.37;100.00;100902.56;5091850;28;20209;-71
2022/11/10 06:23:49;;;;;;;0.73;0.73;;;;;;;9.40;100.00;100931.13;5086317;28;20203;-70
2022/11/10 06:26:16;;;;;;;0.80;0.80;;;;;;;9.44;100.00;100931.28;5086434;28;20205;-71
2022/11/10 06:28:43;;;;;;;0.90;0.90;;;;;;;9.61;100.00;100925.78;5094866;28;20201;-70
2022/11/10 06:31:10;;;;;;;0.80;0.80;;;;;;;9.79;100.00;100923.75;5095811;28;20201;-71
2022/11/10 06:33:41;;;;;;;0.90;0.90;;;;;;;9.87;100.00;100932.66;5095680;28;20236;-71
2022/11/10 06:36:08;;;;;;;0.67;0.67;;;;;;;9.87;100.00;100932.66;5091762;28;20205;-71
2022/11/10 06:38:35;;;;;;;0.70;0.70;;;;;;;9.76;100.00;100911.59;5088600;28;20202;-72
2022/11/10 06:41:02;;;;;;;0.90;0.90;;;;;;;9.94;100.00;100951.03;5106057;28;20210;-72
2022/11/10 06:43:29;;;;;;;0.90;0.90;;;;;;;9.87;100.00;100955.97;5062849;28;20206;-72
2022/11/10 06:45:57;;;;;;;0.80;0.80;;;;;;;10.00;100.00;100939.09;5061296;28;20230;-72
2022/11/10 06:48:23;;;;;;;0.80;0.80;;;;;;;9.98;100.00;100957.19;5090708;28;20210;-72
2022/11/10 06:50:52;;;;;;;0.70;0.70;;;;;;;10.03;100.00;100945.25;5090848;28;20260;-71
2022/11/10 06:53:18;;;;;;;0.70;0.70;;;;;;;10.16;100.00;100960.41;5080540;28;20206;-71
2022/11/10 06:55:45;;;;;;;0.70;0.70;;;;;;;10.18;100.00;100958.72;5051200;28;20206;-72
2022/11/10 06:58:12;;;;;;;0.80;0.80;;;;;;;10.38;100.00;100969.69;5090655;28;20205;-73
2022/11/10 07:00:39;;;;;;;0.90;0.90;;;;;;;10.36;100.00;100964.47;5076527;28;20203;-71
2022/11/10 07:03:07;;;;;;;0.70;0.70;;;;;;;10.46;100.00;100963.00;5084732;28;20252;-73
2022/11/10 07:05:35;;;;;;;0.70;0.70;;;;;;;10.48;100.00;100963.94;5082306;28;20233;-73
2022/11/10 07:08:05;;;;;;;0.80;0.80;;;;;;;10.59;100.00;100948.69;5088407;28;20198;-73
2022/11/10 07:10:33;;;;;;;0.70;0.70;;;;;;;10.62;100.00;100973.00;5091083;28;20198;-72
2022/11/10 07:13:01;;;;;;;0.80;0.80;;;;;;;10.41;100.00;100969.78;5090675;28;20194;-78
2022/11/10 07:15:28;;;;;;;0.70;0.70;;;;;;;10.54;100.00;100965.81;5091703;28;20208;-73
2022/11/10 07:17:55;;;;;;;0.70;0.70;;;;;;;10.63;100.00;100981.66;5076291;28;20199;-72
2022/11/10 07:20:22;;;;;;;0.70;0.70;;;;;;;10.72;100.00;100982.81;5090475;28;20201;-72
2022/11/10 07:22:49;;;;;;;0.93;0.93;;;;;;;10.54;100.00;100976.19;5090670;28;20197;-77
2022/11/10 07:25:17;;;;;;;0.80;0.80;;;;;;;10.60;100.00;100976.38;5070572;28;20223;-71
2022/11/10 07:27:44;;;;;;;0.70;0.70;;;;;;;10.78;100.00;100967.41;5082702;28;20209;-73
2022/11/10 07:30:12;;;;;;;0.70;0.70;;;;;;;10.87;100.00;100961.59;5090169;28;20194;-72
2022/11/10 07:32:38;;;;;;;1.20;1.20;;;;;;;10.92;100.00;100980.75;5054697;28;20201;-73
2022/11/10 07:35:05;;;;;;;0.90;0.90;;;;;;;10.90;100.00;100940.94;5054697;28;20305;-72
2022/11/10 07:37:32;;;;;;;0.75;0.75;;;;;;;11.06;100.00;100969.03;5067864;28;20206;-72
2022/11/10 07:39:59;;;;;;;1.75;1.65;;;;;;;11.08;100.00;100971.69;5070919;28;20198;-73
2022/11/10 07:42:27;;;;;;;0.80;0.80;;;;;;;11.55;100.00;100945.25;5088496;28;20255;-72
2022/11/10 07:44:54;;;;;;;0.80;0.80;;;;;;;11.16;100.00;100879.34;5076092;28;20721;-71
2022/11/10 07:47:20;;;;;;;0.80;0.80;;;;;;;11.11;100.00;100977.84;5085561;28;20674;-71
2022/11/10 07:49:47;;;;;;;1.47;1.47;;;;;;;10.63;100.00;100964.38;5089688;28;20616;-71
2022/11/10 07:52:14;;;;;;;1.00;1.00;;;;;;;10.63;100.00;100977.34;5085856;28;20583;-72
2022/11/10 07:54:41;;;;;;;1.13;1.13;;;;;;;10.59;100.00;100980.69;5079518;28;20202;-72
2022/11/10 07:57:07;;;;;;;0.70;0.70;;;;;;;10.64;100.00;100970.44;5075319;28;20203;-71
2022/11/10 07:59:36;;;;;;;0.70;0.70;;;;;;;10.53;100.00;100971.84;5075386;28;20213;-71
2022/11/10 08:02:02;;;;;;;0.80;0.80;;;;;;;10.63;100.00;100971.31;5053770;28;20696;-72
2022/11/10 08:04:29;;;;;;;1.07;1.07;;;;;;;10.50;100.00;100928.56;5089670;28;20830;-73
2022/11/10 08:06:57;;;;;;;1.13;1.13;;;;;;;10.86;100.00;100970.22;5089148;28;20198;-72
2022/11/10 08:09:24;;;;;;;0.63;0.63;;;;;;;11.09;100.00;100981.25;5089471;28;20713;-72
2022/11/10 08:11:50;;;;;;;3.55;2.03;;;;;;;10.77;100.00;100923.28;5091921;28;20645;-72
2022/11/10 08:14:17;;;;;;;0.87;0.87;;;;;;;11.21;100.00;100978.97;5093104;28;20710;-73
2022/11/10 08:16:45;;;;;;;0.90;0.90;;;;;;;11.23;100.00;100978.19;5092994;28;20568;-72
2022/11/10 08:19:12;;;;;;;0.85;0.85;;;;;;;11.25;100.00;100978.19;5083256;28;20206;-73
2022/11/10 08:21:39;;;;;;;1.17;1.17;;;;;;;11.16;100.00;100985.75;5074968;28;20222;-72
2022/11/10 08:24:06;;;;;;;0.80;0.80;;;;;;;11.16;100.00;100985.75;5079802;28;20202;-72
2022/11/10 08:26:33;;;;;;;7.60;3.07;;;;;;;10.95;100.00;100960.13;5093193;28;20226;-71
2022/11/10 08:29:00;;;;;;;2.75;2.35;;;;;;;11.38;100.00;100986.34;5092966;28;20202;-72
2022/11/10 08:31:27;;;;;;;2.92;1.83;;;;;;;11.54;100.00;100989.34;5093051;28;20202;-71
2022/11/10 08:33:55;;;;;;;0.80;0.80;;;;;;;11.68;100.00;100968.09;5057264;28;20593;-71
2022/11/10 08:36:22;;;;;;;1.55;1.55;;;;;;;11.59;100.00;100986.06;5093008;28;20210;-71
2022/11/10 08:38:49;;;;;;;4.20;3.20;;;;;;;11.71;100.00;100988.09;5092254;28;20687;-70
2022/11/10 08:41:16;;;;;;;2.00;1.90;;;;;;;11.98;100.00;100959.31;5093078;28;20240;-70
2022/11/10 08:43:43;;;;;;;0.90;0.90;;;;;;;12.21;100.00;100987.56;5073023;28;20430;-70
2022/11/10 08:46:10;;;;;;;2.17;2.08;;;;;;;12.17;100.00;100970.13;5093007;28;20732;-71
2022/11/10 08:48:36;;;;;;;0.70;0.70;;;;;;;12.26;100.00;100996.38;5092977;28;20213;-71
2022/11/10 08:51:05;;;;;;;0.93;0.93;;;;;;;12.54;100.00;101003.06;5093127;28;20205;-71
2022/11/10 08:53:31;;;;;;;1.90;1.83;;;;;;;12.12;100.00;100963.09;5078991;28;20198;-72
2022/11/10 08:55:59;;;;;;;0.60;0.60;;;;;;;12.41;100.00;101001.03;5092938;28;20218;-71
2022/11/10 08:58:26;;;;;;;0.77;0.77;;;;;;;12.27;100.00;100971.25;5092757;28;20213;-71
2022/11/10 09:00:53;;;;;;;1.00;1.00;;;;;;;12.50;100.00;100995.13;5091396;28;20221;-71
2022/11/10 09:03:21;;;;;;;0.93;0.93;;;;;;;12.81;100.00;101003.63;5072548;28;20198;-71
2022/11/10 09:05:49;;;;;;;0.70;0.70;;;;;;;12.81;100.00;100998.41;5072261;28;20257;-71
2022/11/10 09:08:18;;;;;;;0.77;0.77;;;;;;;13.02;100.00;101010.97;5078507;28;20209;-71
2022/11/10 09:10:47;;;;;;;0.77;0.77;;;;;;;13.22;100.00;101012.31;5092699;28;20202;-70
2022/11/10 09:13:15;;;;;;;0.70;0.70;;;;;;;13.39;100.00;101005.69;5092680;28;20271;-72
2022/11/10 09:15:43;;;;;;;0.60;0.60;;;;;;;13.08;100.00;100992.91;5092508;28;20451;-72
2022/11/10 09:18:12;;;;;;;0.70;0.70;;;;;;;13.25;100.00;100991.53;5088722;28;20195;-71
2022/11/10 09:20:40;;;;;;;0.70;0.70;;;;;;;13.35;100.00;100993.44;5082712;28;20606;-71
2022/11/10 09:23:09;;;;;;;0.70;0.70;;;;;;;13.46;100.00;100988.44;5077333;28;20209;-72
2022/11/10 09:25:38;;;;;;;0.68;0.68;;;;;;;13.44;100.00;100989.25;5092154;28;20226;-72
2022/11/10 09:28:05;;;;;;;0.70;0.70;;;;;;;13.63;100.00;101035.63;5090769;28;20652;-71
2022/11/10 09:30:32;;;;;;;0.77;0.77;;;;;;;13.65;100.00;101011.38;5079261;28;20201;-72
2022/11/10 09:33:00;;;;;;;0.70;0.70;;;;;;;13.64;100.00;101009.59;5092175;28;20206;-70
2022/11/10 09:35:28;;;;;;;0.70;0.70;;;;;;;13.75;100.00;101022.81;5085895;28;20210;-71
2022/11/10 09:37:55;;;;;;;0.70;0.70;;;;;;;13.80;100.00;101021.19;5084414;28;20301;-73
2022/11/10 09:40:27;;;;;;;0.80;0.80;;;;;;;13.90;100.00;101007.44;5091875;28;20199;-72
2022/11/10 09:42:59;;;;;;;0.70;0.70;;;;;;;13.95;100.00;101012.75;5056162;28;20201;-72
2022/11/10 09:45:29;;;;;;;0.70;0.70;;;;;;;13.95;100.00;101016.19;5092000;28;20213;-72
2022/11/10 09:48:01;;;;;;;0.90;0.90;;;;;;;14.06;100.00;101017.25;5092149;28;20201;-73
2022/11/10 09:50:36;;;;;;;2.95;1.23;;;;;;;14.09;100.00;101009.47;5091793;28;20198;-72
2022/11/10 09:53:04;;;;;;;0.77;0.77;;;;;;;13.84;100.00;101004.75;5080912;28;20206;-72
2022/11/10 09:55:42;;;;;;;1.30;1.10;;;;;;;14.17;100.00;101015.69;5089001;28;20217;-72
2022/11/10 09:58:13;;;;;;;0.90;0.90;;;;;;;14.02;100.00;100978.94;5049054;28;20222;-72
2022/11/10 10:00:42;;;;;;;0.70;0.70;;;;;;;14.34;100.00;101003.78;5071594;28;20706;-72
2022/11/10 10:03:15;;;;;;;0.80;0.80;;;;;;;14.30;100.00;101004.56;5073184;28;20218;-73
2022/11/10 10:05:54;;;;;;;0.70;0.70;;;;;;;14.32;100.00;100997.66;5091084;28;20312;-73
2022/11/10 10:08:31;;;;;;;1.05;1.05;;;;;;;14.48;100.00;101003.13;5077540;28;20197;-73
2022/11/10 10:11:08;;;;;;;0.70;0.70;;;;;;;14.45;100.00;101000.50;5077642;28;20225;-73
2022/11/10 10:14:02;;;;;;;0.80;0.80;;;;;;;14.72;100.00;101006.06;5091306;28;20193;-73
2022/11/10 10:16:36;;;;;;;0.70;0.70;;;;;;;14.83;100.00;101004.47;5072283;28;20209;-73
2022/11/10 10:19:14;;;;;;;0.70;0.70;;;;;;;14.78;100.00;100974.81;5091251;28;20202;-72
2022/11/10 10:21:51;;;;;;;1.05;1.05;;;;;;;15.00;100.00;101002.94;5057114;28;20201;-73
2022/11/10 10:24:21;;;;;;;1.08;1.08;;;;;;;15.06;100.00;101008.22;5079694;28;20210;-73
2022/11/10 10:26:51;;;;;;;1.45;1.45;;;;;;;15.18;100.00;101002.28;5088952;28;20266;-73
2022/11/10 10:29:23;;;;;;;0.88;0.88;;;;;;;15.43;100.00;100995.56;5080578;28;20199;-70
2022/11/10 10:31:51;;;;;;;0.68;0.68;;;;;;;15.43;100.00;100995.56;5088210;28;20197;-70
2022/11/10 10:34:20;;;;;;;0.70;0.70;;;;;;;15.52;100.00;100987.84;5090343;28;20213;-75
2022/11/10 10:36:47;;;;;;;0.80;0.80;;;;;;;15.43;100.00;100987.72;5090668;28;20214;-72
2022/11/10 10:39:17;;;;;;;0.75;0.75;;;;;;;15.54;100.00;100996.59;5082400;28;20214;-72
2022/11/10 10:41:45;;;;;;;0.60;0.60;;;;;;;15.91;100.00;100967.25;5085743;28;20628;-73
2022/11/10 10:44:14;;;;;;;0.70;0.70;;;;;;;16.26;100.00;100965.78;5090811;28;20207;-72
2022/11/10 10:46:52;;;;;;;1.17;1.17;;;;;;;16.35;100.00;100994.59;5090802;28;20222;-71
2022/11/10 10:49:20;;;;;;;0.70;0.70;;;;;;;16.09;100.00;100985.69;5090633;28;20342;-71
2022/11/10 10:51:49;;;;;;;0.60;0.60;;;;;;;15.91;100.00;100996.03;5090741;28;20206;-73
2022/11/10 10:54:27;;;;;;;0.70;0.70;;;;;;;15.92;100.00;100987.31;5090554;28;20293;-70
2022/11/10 10:57:02;;;;;;;0.70;0.70;;;;;;;15.95;100.00;100992.56;5090604;28;20220;-71
2022/11/10 10:59:30;;;;;;;0.70;0.70;;;;;;;15.81;100.00;100966.31;5090390;28;20197;-70
2022/11/10 11:01:58;;;;;;;0.70;0.70;;;;;;;15.94;100.00;100975.16;5090301;28;20202;-70
2022/11/10 11:04:31;;;;;;;0.80;0.80;;;;;;;16.18;100.00;100972.69;5090315;28;20291;-70
2022/11/10 11:07:01;;;;;;;0.70;0.70;;;;;;;16.34;100.00;100985.00;5090268;28;20225;-70
2022/11/10 11:09:30;;;;;;;0.60;0.60;;;;;;;16.30;100.00;100957.03;5088655;28;20645;-71
2022/11/10 11:12:02;;;;;;;0.70;0.70;;;;;;;16.44;100.00;100987.69;5078621;28;20202;-72
2022/11/10 11:14:30;;;;;;;0.63;0.63;;;;;;;16.43;100.00;100978.06;5075810;28;20919;-72
2022/11/10 11:17:01;;;;;;;0.90;0.90;;;;;;;16.35;100.00;100962.31;5090261;28;20206;-71
2022/11/10 11:19:31;;;;;;;1.33;1.23;;;;;;;16.53;100.00;100974.63;5089940;28;20256;-71
2022/11/10 11:22:27;;;;;;;0.75;0.75;;;;;;;16.50;100.00;100977.22;5090231;28;20693;-72
2022/11/10 11:25:05;;;;;;;0.60;0.60;;;;;;;16.60;100.00;100977.31;5090092;28;20198;-73
2022/11/10 11:27:39;;;;;;;0.70;0.70;;;;;;;16.73;100.00;100978.28;5072300;28;20221;-72
2022/11/10 11:30:10;;;;;;;1.60;1.58;;;;;;;16.57;100.00;100960.72;5055595;28;20681;-72
2022/11/10 11:33:07;;;;;;;1.27;1.27;;;;;;;16.76;99.49;100979.16;5079448;28;20305;-72
2022/11/10 11:35:42;;;;;;;0.80;0.80;;;;;;;16.78;100.00;100974.78;5027822;28;20576;-72
2022/11/10 11:38:13;;;;;;;0.70;0.70;;;;;;;16.72;99.16;100955.56;5041501;28;20203;-72
2022/11/10 11:41:01;;;;;;;0.80;0.80;;;;;;;16.77;98.11;100975.66;5030991;28;20269;-75
2022/11/10 11:43:51;;;;;;;1.13;1.13;;;;;;;16.87;99.06;100954.75;5047448;28;20671;-71